Time;durP1;ratioP1;P1;durP2;ratioP2;P2;SDS_P1;SDS_P2;PMS_P1;PMS_P2;Temp;Humidity;BMP_temperature;BMP_pressure;BME280_temperature;BME280_humidity;BME280_pressure;Samples;Min_cycle;Max_cycle;Signal;HPM_P1;HPM_P2
2022/01/08 00:00:37;;;;;;;16.42;2.45;;;1.60;99.90;;;;;;5087343;28;20403;-68
2022/01/08 00:03:05;;;;;;;5.60;1.73;;;1.60;99.90;;;;;;5087838;28;20430;-66
2022/01/08 00:05:33;;;;;;;11.82;1.58;;;1.60;99.90;;;;;;5090734;28;20055;-67
2022/01/08 00:08:00;;;;;;;10.38;1.98;;;1.70;99.90;;;;;;5089061;28;20059;-67
2022/01/08 00:10:28;;;;;;;3.90;2.10;;;1.70;99.90;;;;;;5089414;28;20472;-65
2022/01/08 00:13:01;;;;;;;15.93;2.90;;;1.60;99.90;;;;;;5088901;28;20047;-66
2022/01/08 00:15:28;;;;;;;6.93;1.98;;;1.60;99.90;;;;;;5090459;28;20055;-69
2022/01/08 00:17:58;;;;;;;5.03;1.60;;;1.70;99.90;;;;;;5090222;28;20648;-66
2022/01/08 00:20:27;;;;;;;8.30;2.03;;;1.70;99.90;;;;;;5090465;28;20055;-66
2022/01/08 00:22:56;;;;;;;8.80;1.85;;;1.80;99.90;;;;;;5070992;28;20060;-67
2022/01/08 00:25:24;;;;;;;6.18;1.77;;;1.80;99.90;;;;;;5090511;28;20043;-66
2022/01/08 00:27:51;;;;;;;9.68;2.00;;;1.80;99.90;;;;;;5089969;28;20048;-67
2022/01/08 00:30:19;;;;;;;10.77;2.03;;;1.80;99.90;;;;;;5089691;28;20052;-66
2022/01/08 00:32:47;;;;;;;8.30;1.98;;;1.80;99.90;;;;;;5089874;28;20401;-67
2022/01/08 00:35:14;;;;;;;5.47;1.83;;;1.90;99.90;;;;;;5090377;28;20043;-66
2022/01/08 00:37:42;;;;;;;10.63;2.58;;;1.90;99.90;;;;;;5081611;28;20060;-63
2022/01/08 00:40:11;;;;;;;4.15;1.35;;;1.90;99.90;;;;;;5088801;28;20044;-64
2022/01/08 00:42:39;;;;;;;9.75;2.03;;;1.90;99.90;;;;;;5089545;28;20059;-63
2022/01/08 00:45:07;;;;;;;10.07;2.10;;;1.90;99.90;;;;;;5088684;28;20048;-67
2022/01/08 00:47:35;;;;;;;9.70;2.78;;;1.90;99.90;;;;;;5089764;28;20048;-67
2022/01/08 00:50:05;;;;;;;4.28;1.67;;;1.90;99.90;;;;;;5089697;28;20399;-73
2022/01/08 00:52:33;;;;;;;;;;;1.90;99.90;;;;;;5084774;28;20519;-73
2022/01/08 00:55:00;;;;;;;9.02;2.13;;;2.00;99.90;;;;;;5089511;28;19931;-72
2022/01/08 00:57:28;;;;;;;7.20;1.95;;;2.00;99.90;;;;;;5089889;28;20620;-73
2022/01/08 00:59:56;;;;;;;9.88;1.90;;;2.00;99.90;;;;;;5089562;28;20490;-73
2022/01/08 01:02:23;;;;;;;13.90;1.80;;;2.00;99.90;;;;;;5087655;28;20408;-74
2022/01/08 01:04:51;;;;;;;8.32;2.10;;;2.10;99.90;;;;;;5085771;28;20059;-64
2022/01/08 01:07:19;;;;;;;11.10;2.35;;;2.10;99.90;;;;;;5085819;28;20066;-65
2022/01/08 01:09:46;;;;;;;9.35;2.05;;;2.10;99.90;;;;;;5088076;28;20063;-68
2022/01/08 01:12:14;;;;;;;6.97;1.90;;;2.10;99.90;;;;;;5089617;28;20047;-73
2022/01/08 01:15:04;;;;;;;5.18;1.58;;;2.10;99.90;;;;;;5089435;28;20474;-69
2022/01/08 01:17:31;;;;;;;10.00;2.00;;;2.20;99.90;;;;;;5089245;28;20050;-76
2022/01/08 01:19:59;;;;;;;6.25;1.80;;;2.10;99.90;;;;;;5088012;28;20048;-69
2022/01/08 01:22:39;;;;;;;12.80;2.20;;;2.20;99.90;;;;;;5084248;28;20047;-73
2022/01/08 01:25:10;;;;;;;7.47;1.90;;;2.20;99.90;;;;;;5084020;28;20052;-67
2022/01/08 01:30:31;;;;;;;12.27;2.47;;;2.10;99.90;;;;;;5089136;28;20044;-67
2022/01/08 01:41:13;;;;;;;14.23;2.00;;;2.20;99.90;;;;;;5088866;28;20062;-66
2022/01/08 01:49:37;;;;;;;3.47;1.75;;;2.30;99.90;;;;;;5088529;28;20058;-71
2022/01/08 01:52:07;;;;;;;7.05;2.63;;;2.30;99.90;;;;;;5088701;28;20040;-66
2022/01/08 01:54:34;;;;;;;;;;;2.30;99.90;;;;;;5087385;28;20531;-67
2022/01/08 01:57:04;;;;;;;9.48;1.88;;;2.30;99.90;;;;;;5089134;28;20413;-73
2022/01/08 01:59:34;;;;;;;8.77;1.75;;;2.30;99.90;;;;;;5087319;28;20041;-70
2022/01/08 02:02:05;;;;;;;10.35;2.35;;;2.30;99.90;;;;;;5088947;28;20047;-66
2022/01/08 02:04:33;;;;;;;23.47;2.10;;;2.30;99.90;;;;;;5087202;28;20047;-64
2022/01/08 02:07:01;;;;;;;10.38;2.33;;;2.30;99.90;;;;;;5087018;28;20553;-66
2022/01/08 02:09:33;;;;;;;12.07;1.95;;;2.40;99.90;;;;;;5086701;28;20600;-67
2022/01/08 02:12:11;;;;;;;7.07;1.70;;;2.40;99.90;;;;;;5071477;28;20056;-63
2022/01/08 02:14:39;;;;;;;8.40;2.45;;;2.40;99.90;;;;;;5086758;28;20060;-64
2022/01/08 02:17:08;;;;;;;6.22;1.98;;;2.40;99.90;;;;;;5086747;28;20044;-64
2022/01/08 02:19:38;;;;;;;8.60;2.55;;;2.40;99.90;;;;;;5088138;28;20055;-64
2022/01/08 02:22:10;;;;;;;12.30;2.05;;;2.40;99.90;;;;;;5088453;28;20499;-65
2022/01/08 02:24:38;;;;;;;11.80;2.78;;;2.40;99.90;;;;;;5085938;28;20044;-64
2022/01/08 02:27:06;;;;;;;12.75;2.28;;;2.40;99.90;;;;;;5088321;28;20396;-64
2022/01/08 02:29:33;;;;;;;9.60;2.13;;;2.40;99.90;;;;;;5087871;28;20048;-64
2022/01/08 02:32:05;;;;;;;11.30;2.30;;;2.30;99.90;;;;;;5073682;28;20056;-65
2022/01/08 02:34:35;;;;;;;9.82;1.90;;;2.30;99.90;;;;;;5070113;28;20131;-66
2022/01/08 02:37:05;;;;;;;10.70;2.60;;;2.30;99.90;;;;;;5071366;28;20045;-65
2022/01/08 02:39:41;;;;;;;8.85;1.83;;;2.30;99.90;;;;;;5069943;28;20056;-65
2022/01/08 02:42:13;;;;;;;9.65;2.28;;;2.30;99.90;;;;;;5071172;28;20051;-65
2022/01/08 02:44:42;;;;;;;7.30;2.00;;;2.30;99.90;;;;;;5071007;28;20530;-65
2022/01/08 02:47:14;;;;;;;6.35;2.10;;;2.30;99.90;;;;;;5069117;28;20049;-65
2022/01/08 02:49:42;;;;;;;9.45;2.22;;;2.30;99.90;;;;;;5071203;28;20059;-65
2022/01/08 02:52:10;;;;;;;6.65;1.55;;;2.30;99.90;;;;;;5071086;28;20041;-65
2022/01/08 02:54:38;;;;;;;9.38;2.20;;;2.40;99.90;;;;;;5071027;28;20519;-66
2022/01/08 02:57:06;;;;;;;8.27;2.95;;;2.30;99.90;;;;;;5069956;28;20052;-68
2022/01/08 02:59:35;;;;;;;11.55;2.17;;;2.30;99.90;;;;;;5070380;28;20051;-68
2022/01/08 03:02:02;;;;;;;7.53;2.17;;;2.30;99.90;;;;;;5069738;28;20048;-70
2022/01/08 03:04:30;;;;;;;9.25;2.15;;;2.40;99.90;;;;;;5069474;28;20431;-74
2022/01/08 03:06:58;;;;;;;6.22;2.40;;;2.40;99.90;;;;;;5070907;28;20045;-68
2022/01/08 03:09:27;;;;;;;10.38;2.40;;;2.40;99.90;;;;;;5071078;28;20055;-67
2022/01/08 03:11:55;;;;;;;7.13;1.98;;;2.40;99.90;;;;;;5071084;28;20056;-65
2022/01/08 03:14:22;;;;;;;7.65;2.17;;;2.40;99.90;;;;;;5071850;28;20065;-65
2022/01/08 03:16:50;;;;;;;10.70;1.75;;;2.40;99.90;;;;;;5073406;28;20045;-65
2022/01/08 03:19:17;;;;;;;5.20;1.40;;;2.40;99.90;;;;;;5071373;28;20056;-67
2022/01/08 03:21:52;;;;;;;7.20;1.55;;;2.40;99.90;;;;;;5070935;28;20048;-71
2022/01/08 03:24:27;;;;;;;6.47;1.85;;;2.40;99.90;;;;;;5070838;28;20399;-66
2022/01/08 03:26:55;;;;;;;7.22;1.30;;;2.50;99.90;;;;;;5071000;28;20387;-66
2022/01/08 03:29:23;;;;;;;10.63;1.88;;;2.50;99.90;;;;;;5074256;28;20048;-68
2022/01/08 03:31:51;;;;;;;10.80;1.48;;;2.50;99.90;;;;;;5074232;28;20049;-68
2022/01/08 03:34:19;;;;;;;6.97;1.70;;;2.60;99.90;;;;;;5074355;28;20048;-65
2022/01/08 03:36:47;;;;;;;5.38;1.48;;;2.60;99.90;;;;;;5074304;28;20152;-69
2022/01/08 03:39:14;;;;;;;6.90;1.45;;;2.60;99.90;;;;;;5074362;28;20044;-65
2022/01/08 03:41:43;;;;;;;8.68;1.75;;;2.60;99.90;;;;;;5074195;28;20048;-69
2022/01/08 03:44:11;;;;;;;5.70;1.55;;;2.60;99.90;;;;;;5074103;28;20040;-71
2022/01/08 03:46:39;;;;;;;5.88;1.67;;;2.70;99.90;;;;;;5074073;28;20044;-67
2022/01/08 03:51:35;;;;;;;7.63;1.50;;;2.70;99.90;;;;;;5073969;28;20423;-69
2022/01/08 03:54:03;;;;;;;8.35;2.33;;;2.70;99.90;;;;;;5073872;28;20044;-66
2022/01/08 03:56:30;;;;;;;5.50;1.60;;;2.70;99.90;;;;;;5073926;28;20055;-65
2022/01/08 03:58:58;;;;;;;7.63;1.80;;;2.70;99.90;;;;;;5073815;28;20395;-66
2022/01/08 04:01:26;;;;;;;6.18;1.67;;;2.80;99.90;;;;;;5071804;28;20103;-65
2022/01/08 04:03:53;;;;;;;10.15;2.53;;;2.80;99.90;;;;;;5073707;28;20045;-68
2022/01/08 04:06:21;;;;;;;7.18;1.60;;;2.90;99.90;;;;;;5073638;28;20052;-65
2022/01/08 04:08:56;;;;;;;6.68;2.05;;;2.90;99.90;;;;;;5073721;28;20483;-67
2022/01/08 04:11:25;;;;;;;12.88;2.25;;;2.90;99.90;;;;;;5073607;28;20051;-67
2022/01/08 04:13:54;;;;;;;10.75;2.22;;;2.90;99.90;;;;;;5073598;28;20048;-66
2022/01/08 04:16:29;;;;;;;6.65;2.00;;;2.90;99.90;;;;;;5073653;28;20491;-72
2022/01/08 04:18:57;;;;;;;4.13;1.77;;;3.00;99.90;;;;;;5072989;28;20045;-66
2022/01/08 04:23:55;;;;;;;6.60;1.60;;;3.00;99.90;;;;;;5073432;28;20049;-71
2022/01/08 04:26:23;;;;;;;4.75;1.63;;;3.00;99.90;;;;;;5073228;28;20056;-68
2022/01/08 04:28:53;;;;;;;4.95;1.70;;;3.10;99.90;;;;;;5073166;28;20052;-67
2022/01/08 04:31:22;;;;;;;5.82;1.42;;;3.10;99.90;;;;;;5073134;28;20044;-70
2022/01/08 04:33:50;;;;;;;5.45;1.58;;;3.20;99.90;;;;;;5071036;28;20463;-70
2022/01/08 04:36:18;;;;;;;11.75;1.98;;;3.10;99.90;;;;;;5072842;28;20066;-71
2022/01/08 04:38:46;;;;;;;10.02;1.80;;;3.20;99.90;;;;;;5072595;28;20395;-72
2022/01/08 04:41:14;;;;;;;12.07;1.98;;;3.20;99.90;;;;;;5072990;28;20059;-70
2022/01/08 04:43:44;;;;;;;6.15;1.60;;;3.20;99.90;;;;;;5071761;28;20041;-73
2022/01/08 04:46:12;;;;;;;10.02;2.10;;;3.20;99.90;;;;;;5071556;28;20044;-73
2022/01/08 04:48:40;;;;;;;9.77;2.28;;;3.30;99.90;;;;;;5072866;28;20048;-70
2022/01/08 04:51:08;;;;;;;7.55;1.42;;;3.30;99.90;;;;;;5072848;28;20044;-67
2022/01/08 04:53:35;;;;;;;4.85;1.67;;;3.40;99.90;;;;;;5072547;28;20521;-65
2022/01/08 04:56:03;;;;;;;7.53;1.70;;;3.40;99.90;;;;;;5072724;28;20044;-65
2022/01/08 04:58:31;;;;;;;5.32;1.52;;;3.40;99.90;;;;;;5072642;28;20052;-65
2022/01/08 05:00:59;;;;;;;6.35;1.58;;;3.40;99.90;;;;;;5072599;28;20056;-66
2022/01/08 05:03:26;;;;;;;6.47;1.83;;;3.50;99.90;;;;;;5072630;28;20045;-67
2022/01/08 05:05:54;;;;;;;7.95;2.10;;;3.50;99.90;;;;;;5072393;28;20051;-66
2022/01/08 05:08:22;;;;;;;11.02;2.95;;;3.50;99.90;;;;;;5072259;28;20051;-66
2022/01/08 05:10:49;;;;;;;8.50;2.47;;;3.50;99.90;;;;;;5072540;28;20052;-67
2022/01/08 05:13:17;;;;;;;8.98;2.40;;;3.60;99.90;;;;;;5072538;28;20067;-67
2022/01/08 05:15:45;;;;;;;8.80;2.50;;;3.60;99.90;;;;;;5072460;28;20045;-67
2022/01/08 05:18:12;;;;;;;9.88;2.20;;;3.60;99.90;;;;;;5070754;28;20533;-67
2022/01/08 05:20:44;;;;;;;4.80;2.75;;;3.60;99.90;;;;;;5072530;28;20084;-66
2022/01/08 05:23:11;;;;;;;7.78;1.95;;;3.60;99.90;;;;;;5072317;28;20526;-67
2022/01/08 05:25:39;;;;;;;10.95;2.55;;;3.60;99.90;;;;;;5072240;28;20040;-66
2022/01/08 05:28:07;;;;;;;14.15;2.70;;;3.60;99.90;;;;;;5071573;28;20040;-66
2022/01/08 05:30:34;;;;;;;10.55;2.28;;;3.60;99.90;;;;;;5072005;28;20063;-66
2022/01/08 05:33:02;;;;;;;10.88;2.78;;;3.70;99.90;;;;;;5072057;28;20513;-67
2022/01/08 05:35:30;;;;;;;11.27;2.63;;;3.70;99.90;;;;;;5071923;28;20537;-67
2022/01/08 05:37:57;;;;;;;17.00;2.97;;;3.70;99.90;;;;;;5070669;28;20411;-68
2022/01/08 05:40:25;;;;;;;12.93;3.00;;;3.70;99.90;;;;;;5071894;28;20403;-67
2022/01/08 05:42:52;;;;;;;11.68;2.65;;;3.70;99.90;;;;;;5070729;28;20037;-67
2022/01/08 05:45:20;;;;;;;8.70;3.13;;;3.70;99.90;;;;;;5071489;28;20052;-66
2022/01/08 05:47:48;;;;;;;6.65;3.00;;;3.70;99.90;;;;;;5066489;28;20045;-67
2022/01/08 05:50:15;;;;;;;27.48;3.42;;;3.80;99.90;;;;;;5066345;28;20060;-68
2022/01/08 05:52:43;;;;;;;10.90;3.90;;;3.80;99.90;;;;;;5068454;28;20048;-67
2022/01/08 05:55:11;;;;;;;11.63;3.25;;;3.80;99.90;;;;;;5067089;28;20052;-67
2022/01/08 05:57:39;;;;;;;7.75;3.25;;;3.80;99.90;;;;;;5073376;28;20463;-70
2022/01/08 06:00:07;;;;;;;19.98;3.05;;;3.90;99.90;;;;;;5088291;28;20079;-68
2022/01/08 06:02:36;;;;;;;11.25;3.30;;;3.90;99.90;;;;;;5073873;28;20040;-67
2022/01/08 06:05:05;;;;;;;8.90;2.10;;;4.00;99.90;;;;;;5063889;28;20056;-68
2022/01/08 06:07:33;;;;;;;10.52;2.97;;;4.00;99.90;;;;;;5031503;28;20056;-69
2022/01/08 06:10:02;;;;;;;13.07;3.30;;;4.00;99.90;;;;;;5066628;28;20052;-68
2022/01/08 06:12:29;;;;;;;10.52;2.70;;;4.00;99.90;;;;;;5074067;28;20048;-68
2022/01/08 06:14:57;;;;;;;12.20;2.97;;;4.10;99.90;;;;;;5088409;28;20040;-72
2022/01/08 06:17:25;;;;;;;12.48;3.03;;;4.10;99.90;;;;;;5086911;28;20044;-68
2022/01/08 06:19:52;;;;;;;12.32;3.17;;;4.20;99.90;;;;;;5068157;28;20053;-69
2022/01/08 06:22:20;;;;;;;12.45;3.30;;;4.20;99.90;;;;;;5072594;28;20404;-68
2022/01/08 06:24:48;;;;;;;11.82;2.85;;;4.20;99.90;;;;;;5086498;28;20059;-68
2022/01/08 06:27:16;;;;;;;16.27;2.63;;;4.30;99.90;;;;;;5088051;28;20048;-72
2022/01/08 06:29:44;;;;;;;11.10;3.60;;;4.30;99.90;;;;;;5088374;28;20040;-69
2022/01/08 06:32:11;;;;;;;8.48;2.97;;;4.30;99.90;;;;;;5088059;28;20059;-72
2022/01/08 06:34:39;;;;;;;12.05;3.05;;;4.40;99.90;;;;;;5069614;28;20064;-71
2022/01/08 06:37:07;;;;;;;13.25;3.42;;;4.40;99.90;;;;;;5067333;28;20051;-67
2022/01/08 06:39:35;;;;;;;14.48;3.60;;;4.50;99.90;;;;;;5088095;28;20044;-70
2022/01/08 06:42:03;;;;;;;10.38;3.33;;;4.50;99.90;;;;;;5087804;28;20055;-72
2022/01/08 06:44:31;;;;;;;15.30;3.28;;;4.50;99.90;;;;;;5088060;28;20052;-71
2022/01/08 06:46:59;;;;;;;16.27;4.13;;;4.60;99.90;;;;;;5088150;28;20051;-69
2022/01/08 06:49:26;;;;;;;14.80;4.40;;;4.60;99.90;;;;;;5071939;28;20048;-72
2022/01/08 06:51:54;;;;;;;19.30;4.40;;;4.60;99.90;;;;;;5068318;28;20048;-73
2022/01/08 06:54:21;;;;;;;20.40;5.45;;;4.60;99.90;;;;;;5088120;28;20036;-70
2022/01/08 06:56:49;;;;;;;10.90;4.30;;;4.60;99.90;;;;;;5085967;28;20048;-70
2022/01/08 06:59:17;;;;;;;12.70;5.07;;;4.70;99.90;;;;;;5083310;28;20199;-70
2022/01/08 07:01:44;;;;;;;19.75;5.80;;;4.80;99.90;;;;;;5084391;28;20055;-73
2022/01/08 07:04:12;;;;;;;14.55;4.90;;;4.90;99.90;;;;;;5086954;28;20044;-74
2022/01/08 07:06:40;;;;;;;15.18;5.90;;;4.90;99.90;;;;;;5088515;28;20056;-73
2022/01/08 07:09:08;;;;;;;15.98;5.97;;;4.90;99.90;;;;;;5088095;28;20048;-72
2022/01/08 07:11:35;;;;;;;16.48;6.75;;;5.00;99.90;;;;;;5087280;28;20391;-73
2022/01/08 07:14:03;;;;;;;14.90;6.43;;;5.00;99.90;;;;;;5088027;28;20063;-73
2022/01/08 07:16:31;;;;;;;29.55;7.82;;;5.10;99.90;;;;;;5088394;28;20134;-74
2022/01/08 07:18:59;;;;;;;20.35;6.45;;;5.10;99.90;;;;;;5079775;28;20055;-70
2022/01/08 07:21:27;;;;;;;19.05;7.40;;;5.10;99.90;;;;;;5071104;28;20036;-71
2022/01/08 07:23:56;;;;;;;19.20;8.10;;;5.10;99.90;;;;;;5087189;28;20414;-70
2022/01/08 07:26:23;;;;;;;26.25;9.43;;;5.20;99.90;;;;;;5090064;28;20048;-73
2022/01/08 07:28:51;;;;;;;22.17;8.88;;;5.20;99.90;;;;;;5088001;28;20051;-71
2022/01/08 07:31:18;;;;;;;14.50;8.02;;;5.20;99.90;;;;;;5087465;28;20051;-71
2022/01/08 07:33:49;;;;;;;18.58;7.47;;;5.20;99.90;;;;;;5084878;28;20051;-69
2022/01/08 07:36:17;;;;;;;22.75;8.90;;;5.20;99.90;;;;;;5070708;28;20053;-72
2022/01/08 07:38:47;;;;;;;18.23;7.35;;;5.30;99.90;;;;;;5084359;28;20044;-73
2022/01/08 07:41:15;;;;;;;20.05;7.47;;;5.30;99.90;;;;;;5089949;28;20044;-68
2022/01/08 07:43:42;;;;;;;18.40;6.95;;;5.30;99.90;;;;;;5086392;28;20391;-68
2022/01/08 07:46:10;;;;;;;19.20;8.60;;;5.30;99.90;;;;;;5086697;28;20062;-65
2022/01/08 07:48:39;;;;;;;18.45;7.28;;;5.40;99.90;;;;;;5085887;28;20048;-65
2022/01/08 07:51:07;;;;;;;16.50;7.28;;;5.40;99.90;;;;;;5069471;28;20052;-65
2022/01/08 07:53:34;;;;;;;18.63;9.00;;;5.40;99.90;;;;;;5088490;28;20048;-65
2022/01/08 07:56:02;;;;;;;19.50;8.30;;;5.40;99.90;;;;;;5090840;28;20055;-68
2022/01/08 07:58:30;;;;;;;14.20;7.90;;;5.40;99.90;;;;;;5090595;28;20036;-69
2022/01/08 08:00:58;;;;;;;16.08;8.70;;;5.40;99.90;;;;;;5089720;28;20048;-68
2022/01/08 08:03:26;;;;;;;19.80;7.90;;;5.50;99.90;;;;;;5084162;28;20052;-68
2022/01/08 08:05:54;;;;;;;21.42;8.98;;;5.50;99.90;;;;;;5066244;28;20052;-69
2022/01/08 08:08:21;;;;;;;21.05;8.27;;;5.50;99.90;;;;;;5077159;28;20408;-68
2022/01/08 08:10:50;;;;;;;21.48;8.80;;;5.60;99.90;;;;;;5087249;28;20044;-69
2022/01/08 08:13:20;;;;;;;17.60;7.90;;;5.60;99.90;;;;;;5083538;28;20051;-67
2022/01/08 08:15:48;;;;;;;;;;;5.60;99.90;;;;;;5086346;28;20055;-70
2022/01/08 08:18:16;;;;;;;21.55;8.70;;;5.60;99.90;;;;;;5085285;28;20410;-69
2022/01/08 08:20:43;;;;;;;18.58;8.00;;;5.60;99.90;;;;;;5067349;28;20044;-69
2022/01/08 08:23:11;;;;;;;16.77;7.40;;;5.70;99.90;;;;;;5076271;28;20071;-70
2022/01/08 08:25:39;;;;;;;16.63;8.52;;;5.70;99.90;;;;;;5084711;28;20256;-69
2022/01/08 08:28:07;;;;;;;19.10;7.70;;;5.70;99.90;;;;;;5081159;28;20495;-70
2022/01/08 08:30:35;;;;;;;22.00;7.65;;;5.80;99.90;;;;;;5070140;28;20047;-70
2022/01/08 08:33:04;;;;;;;19.38;7.95;;;5.80;99.90;;;;;;5079428;28;20040;-69
2022/01/08 08:35:33;;;;;;;15.37;7.33;;;5.90;99.90;;;;;;5087231;28;20055;-69
2022/01/08 08:38:01;;;;;;;18.27;7.55;;;5.90;99.90;;;;;;5090061;28;20396;-68
2022/01/08 08:40:30;;;;;;;16.05;7.82;;;5.90;99.90;;;;;;5088488;28;20055;-70
2022/01/08 08:42:58;;;;;;;14.80;7.05;;;6.00;99.90;;;;;;5088202;28;20394;-69
2022/01/08 08:45:28;;;;;;;13.73;5.60;;;6.00;99.90;;;;;;5088911;28;20060;-67
2022/01/08 08:47:56;;;;;;;13.90;6.28;;;6.00;99.90;;;;;;5088917;28;20055;-66
2022/01/08 08:50:24;;;;;;;10.27;5.88;;;6.10;99.90;;;;;;5073636;28;20048;-65
2022/01/08 08:52:54;;;;;;;10.73;5.50;;;6.10;99.90;;;;;;5077238;28;20411;-65
2022/01/08 08:55:22;;;;;;;15.40;6.25;;;6.20;99.90;;;;;;5086607;28;20664;-66
2022/01/08 08:57:49;;;;;;;12.48;5.35;;;6.20;99.90;;;;;;5086369;28;20652;-65
2022/01/08 09:00:17;;;;;;;13.15;5.90;;;6.20;99.90;;;;;;5077267;28;20044;-68
2022/01/08 09:02:45;;;;;;;12.98;6.38;;;6.20;99.90;;;;;;5079194;28;20063;-68
2022/01/08 09:05:13;;;;;;;9.77;4.95;;;6.20;99.90;;;;;;5079460;28;20056;-66
2022/01/08 09:07:41;;;;;;;12.30;5.25;;;6.30;99.90;;;;;;5079399;28;20043;-66
2022/01/08 09:10:09;;;;;;;12.75;5.70;;;6.30;99.90;;;;;;5089617;28;20044;-66
2022/01/08 09:12:39;;;;;;;11.98;4.75;;;6.30;99.90;;;;;;5086379;28;20044;-65
2022/01/08 09:15:08;;;;;;;10.65;5.05;;;6.40;99.90;;;;;;5089214;28;20048;-66
2022/01/08 09:17:39;;;;;;;12.57;4.57;;;6.40;99.90;;;;;;5089231;28;20056;-67
2022/01/08 09:20:08;;;;;;;19.70;4.55;;;6.40;99.90;;;;;;5085649;28;20048;-66
2022/01/08 09:22:36;;;;;;;10.73;4.18;;;6.40;99.90;;;;;;5087770;28;20055;-66
2022/01/08 09:25:06;;;;;;;15.38;4.65;;;6.50;99.90;;;;;;5088522;28;20052;-67
2022/01/08 09:27:34;;;;;;;;;;;6.50;99.90;;;;;;5067864;28;20049;-66
2022/01/08 09:30:03;;;;;;;15.45;4.25;;;6.60;99.90;;;;;;5069244;28;19920;-66
2022/01/08 09:32:31;;;;;;;11.30;3.45;;;6.60;99.90;;;;;;5073417;28;20607;-67
2022/01/08 09:34:59;;;;;;;9.57;3.22;;;6.60;99.90;;;;;;5078787;28;20047;-67
2022/01/08 09:37:27;;;;;;;12.90;4.72;;;6.70;99.90;;;;;;5069767;28;20083;-71
2022/01/08 09:39:55;;;;;;;12.02;3.70;;;6.70;99.90;;;;;;5087530;28;20051;-68
2022/01/08 09:42:22;;;;;;;13.30;4.40;;;6.70;99.90;;;;;;5070754;28;20055;-74
2022/01/08 09:44:51;;;;;;;11.70;3.17;;;6.70;99.90;;;;;;5088303;28;20399;-75
2022/01/08 09:47:19;;;;;;;13.80;4.10;;;6.70;99.90;;;;;;5075383;28;20051;-76
2022/01/08 09:49:48;;;;;;;8.07;2.83;;;6.80;99.90;;;;;;5082375;28;20044;-75
2022/01/08 09:52:16;;;;;;;6.20;2.97;;;6.80;99.90;;;;;;5075091;28;20048;-69
2022/01/08 09:54:44;;;;;;;9.48;3.20;;;6.80;99.90;;;;;;5088294;28;20047;-66
2022/01/08 09:57:11;;;;;;;9.02;2.63;;;6.80;99.90;;;;;;5077273;28;20049;-66
2022/01/08 09:59:39;;;;;;;9.20;2.95;;;6.80;99.90;;;;;;5108772;28;20039;-65
2022/01/08 10:02:07;;;;;;;12.73;3.30;;;6.90;99.90;;;;;;5109106;28;20051;-65
2022/01/08 10:04:36;;;;;;;8.38;2.50;;;6.90;99.90;;;;;;5088035;28;20047;-64
2022/01/08 10:07:24;;;;;;;10.60;3.13;;;6.90;99.90;;;;;;5085065;28;20055;-66
2022/01/08 10:10:12;;;;;;;8.20;3.08;;;7.00;99.90;;;;;;5065282;28;20055;-65
2022/01/08 10:12:44;;;;;;;11.27;3.03;;;7.00;99.90;;;;;;5073959;28;20044;-65
2022/01/08 10:18:10;;;;;;;9.30;3.45;;;7.10;99.90;;;;;;5088286;28;20051;-65
2022/01/08 10:20:41;;;;;;;6.38;2.78;;;7.20;99.90;;;;;;5077058;28;20049;-66
2022/01/08 10:23:15;;;;;;;9.82;3.05;;;7.10;99.90;;;;;;5076403;28;20043;-66
2022/01/08 10:25:55;;;;;;;10.90;3.35;;;7.20;99.90;;;;;;5088395;28;20044;-69
2022/01/08 10:28:33;;;;;;;11.30;2.80;;;7.20;99.90;;;;;;5088077;28;20056;-66
2022/01/08 10:31:20;;;;;;;11.68;2.80;;;7.20;99.90;;;;;;5088107;28;20066;-65
2022/01/08 10:33:54;;;;;;;13.82;3.45;;;7.20;99.90;;;;;;5086504;28;20052;-65
2022/01/08 10:36:33;;;;;;;15.23;3.05;;;7.30;99.90;;;;;;5071419;28;20044;-67
2022/01/08 10:39:11;;;;;;;6.63;2.90;;;7.30;99.90;;;;;;5086061;28;20139;-65
2022/01/08 10:41:44;;;;;;;5.72;2.80;;;7.30;99.90;;;;;;5091268;28;20056;-62
2022/01/08 10:44:14;;;;;;;9.18;2.58;;;7.30;99.90;;;;;;5090793;28;20635;-65
2022/01/08 10:47:03;;;;;;;10.43;2.92;;;7.30;99.90;;;;;;5073012;28;20052;-65
2022/01/08 10:49:35;;;;;;;6.72;2.55;;;7.40;99.90;;;;;;5090585;28;20040;-65
2022/01/08 10:52:23;;;;;;;9.57;2.50;;;7.40;99.90;;;;;;5072008;28;20044;-65
2022/01/08 10:55:01;;;;;;;5.70;2.63;;;7.40;99.90;;;;;;5081319;28;20040;-67
2022/01/08 10:57:31;;;;;;;10.70;2.67;;;7.40;99.90;;;;;;5078028;28;20075;-65
2022/01/08 10:59:59;;;;;;;7.10;2.50;;;7.40;99.90;;;;;;5071622;28;20044;-66
2022/01/08 11:02:28;;;;;;;6.15;2.60;;;7.50;99.90;;;;;;5074959;28;20395;-65
2022/01/08 11:04:56;;;;;;;10.55;2.90;;;7.50;99.90;;;;;;5074461;28;20039;-65
2022/01/08 11:07:25;;;;;;;9.45;2.90;;;7.50;99.90;;;;;;5072602;28;20419;-65
2022/01/08 11:09:55;;;;;;;12.00;2.60;;;7.60;99.90;;;;;;5091709;28;20048;-68
2022/01/08 11:12:29;;;;;;;7.00;2.78;;;7.60;99.90;;;;;;5090078;28;20320;-70
2022/01/08 11:17:55;;;;;;;7.07;2.13;;;7.70;99.90;;;;;;5069124;28;20052;-72
2022/01/08 11:20:45;;;;;;;4.45;1.80;;;7.60;99.90;;;;;;5078563;28;20498;-72
2022/01/08 11:23:17;;;;;;;6.47;1.52;;;7.70;99.90;;;;;;5090170;28;20059;-71
2022/01/08 11:25:48;;;;;;;1.25;1.20;;;7.70;99.90;;;;;;5084314;28;20053;-70
2022/01/08 11:28:17;;;;;;;3.22;1.02;;;7.80;99.90;;;;;;5080302;28;20058;-68
2022/01/08 11:30:53;;;;;;;1.73;1.10;;;7.80;99.90;;;;;;5089896;28;20039;-66
2022/01/08 11:33:26;;;;;;;58.15;28.38;;;7.80;99.90;;;;;;5091120;28;20044;-71
2022/01/08 11:35:55;;;;;;;23.17;15.18;;;7.90;99.90;;;;;;5073659;28;20059;-66
2022/01/08 11:38:26;;;;;;;64.72;25.02;;;7.80;99.90;;;;;;5080897;28;20490;-69
2022/01/08 11:40:57;;;;;;;15.80;5.80;;;7.60;99.90;;;;;;5073235;28;20059;-73
2022/01/08 11:43:28;;;;;;;15.35;3.97;;;7.40;99.90;;;;;;5090895;28;20051;-72
2022/01/08 11:46:02;;;;;;;26.40;7.00;;;7.20;99.90;;;;;;5090266;28;20834;-72
2022/01/08 11:48:54;;;;;;;21.02;4.85;;;7.10;99.90;;;;;;5089395;28;20052;-73
2022/01/08 11:51:23;;;;;;;31.45;7.80;;;7.00;99.90;;;;;;5059453;28;20055;-65
2022/01/08 11:53:54;;;;;;;35.00;7.65;;;6.90;99.90;;;;;;5083564;28;20040;-66
2022/01/08 11:56:23;;;;;;;36.70;5.38;;;6.80;99.90;;;;;;5090953;28;20440;-65
2022/01/08 11:59:06;;;;;;;35.13;5.60;;;6.80;99.90;;;;;;5089553;28;20040;-65
2022/01/08 12:01:36;;;;;;;31.77;5.15;;;6.70;99.90;;;;;;5088785;28;20423;-72
2022/01/08 12:04:04;;;;;;;30.17;4.13;;;6.70;99.90;;;;;;5082646;28;20055;-65
2022/01/08 12:06:38;;;;;;;30.87;5.43;;;6.40;99.90;;;;;;5078237;28;20044;-71
2022/01/08 12:09:26;;;;;;;27.33;3.47;;;6.50;99.90;;;;;;5089326;28;20052;-64
2022/01/08 12:12:04;;;;;;;28.17;4.20;;;6.50;99.90;;;;;;5090297;28;20040;-67
2022/01/08 12:14:38;;;;;;;19.35;3.30;;;6.50;99.90;;;;;;5075010;28;20055;-69
2022/01/08 12:17:15;;;;;;;21.08;4.28;;;6.50;99.90;;;;;;5070088;28;20051;-71
2022/01/08 12:19:46;;;;;;;32.22;5.40;;;6.50;99.90;;;;;;5069127;28;20051;-70
2022/01/08 12:22:16;;;;;;;36.42;5.65;;;6.50;99.90;;;;;;5071011;28;20044;-72
2022/01/08 12:24:55;;;;;;;35.50;5.78;;;6.50;99.90;;;;;;5089324;28;20495;-66
2022/01/08 12:27:35;;;;;;;35.33;6.88;;;6.50;99.90;;;;;;5089501;28;20056;-68
2022/01/08 12:30:18;;;;;;;120.38;36.92;;;6.60;99.90;;;;;;5090287;28;20040;-67
2022/01/08 12:32:52;;;;;;;80.95;23.42;;;6.60;99.90;;;;;;5089243;28;20052;-71
2022/01/08 12:35:36;;;;;;;46.60;11.48;;;6.60;99.90;;;;;;5076834;28;20071;-69
2022/01/08 12:38:06;;;;;;;38.67;10.48;;;6.70;99.90;;;;;;5076846;28;20048;-71
2022/01/08 12:40:36;;;;;;;59.63;12.45;;;6.70;99.90;;;;;;5090011;28;20044;-75
2022/01/08 12:43:22;;;;;;;61.17;8.38;;;6.70;99.90;;;;;;5088410;28;20055;-74
2022/01/08 12:45:52;;;;;;;53.22;7.15;;;6.70;99.90;;;;;;5089981;28;20530;-69
2022/01/08 12:48:21;;;;;;;47.03;7.70;;;6.70;99.90;;;;;;5089809;28;20407;-73
2022/01/08 12:50:49;;;;;;;47.00;7.00;;;6.70;99.90;;;;;;5086926;28;20530;-66
2022/01/08 12:53:22;;;;;;;38.88;5.47;;;6.80;99.90;;;;;;5077447;28;20510;-68
2022/01/08 12:55:56;;;;;;;44.53;8.52;;;6.70;99.90;;;;;;5068182;28;20059;-69
2022/01/08 12:58:42;;;;;;;40.78;7.07;;;6.70;99.90;;;;;;5079230;28;20040;-70
2022/01/08 13:01:13;;;;;;;45.42;8.93;;;6.70;99.90;;;;;;5088503;28;20063;-68
2022/01/08 13:03:48;;;;;;;40.90;5.65;;;6.70;99.90;;;;;;5088720;28;20048;-64
2022/01/08 13:06:17;;;;;;;44.50;6.30;;;6.60;99.90;;;;;;5088328;28;20044;-70
2022/01/08 13:08:47;;;;;;;36.60;5.68;;;6.60;99.90;;;;;;5089306;28;20635;-74
2022/01/08 13:11:20;;;;;;;42.67;6.95;;;6.70;99.90;;;;;;5088886;28;20052;-70
2022/01/08 13:13:53;;;;;;;39.63;7.22;;;6.70;99.90;;;;;;5079075;28;20052;-66
2022/01/08 13:16:22;;;;;;;;;;;6.70;99.90;;;;;;5069777;28;20052;-74
2022/01/08 13:18:55;;;;;;;42.03;6.90;;;6.70;99.90;;;;;;5082311;28;19924;-71
2022/01/08 13:21:35;;;;;;;49.40;7.57;;;6.70;99.90;;;;;;5082751;28;20045;-68
2022/01/08 13:24:18;;;;;;;;;;;6.60;99.90;;;;;;5076060;28;20063;-72
2022/01/08 13:26:57;;;;;;;34.33;8.60;;;6.60;99.90;;;;;;5067776;28;19939;-71
2022/01/08 13:29:30;;;;;;;44.05;6.88;;;6.60;99.90;;;;;;5087255;28;20048;-68
2022/01/08 13:32:01;;;;;;;32.67;6.30;;;6.60;99.90;;;;;;5089432;28;20191;-71
2022/01/08 13:34:37;;;;;;;38.25;6.70;;;6.70;99.90;;;;;;5087464;28;20048;-64